createdAt,value
2023-02-22T00:01:51.109Z,3.10
2023-02-22T00:04:21.288Z,3.97
2023-02-22T00:06:49.688Z,4.73
2023-02-22T00:09:21.489Z,4.77
2023-02-22T00:11:48.970Z,3.83
2023-02-22T00:14:15.924Z,3.53
2023-02-22T00:16:42.549Z,3.57
2023-02-22T00:19:13.676Z,3.50
2023-02-22T00:21:40.376Z,4.07
2023-02-22T00:24:23.122Z,4.13
2023-02-22T00:26:51.762Z,3.73
2023-02-22T00:29:18.606Z,3.53
2023-02-22T00:31:46.445Z,4.13
2023-02-22T00:34:13.986Z,3.77
2023-02-22T00:36:47.832Z,3.63
2023-02-22T00:39:14.647Z,3.25
2023-02-22T00:41:41.804Z,3.53
2023-02-22T00:44:08.605Z,3.00
2023-02-22T00:46:35.248Z,4.37
2023-02-22T00:49:03.404Z,4.10
2023-02-22T00:51:30.023Z,3.47
2023-02-22T00:53:56.821Z,3.40
2023-02-22T00:56:26.969Z,3.83
2023-02-22T00:58:54.249Z,3.50
2023-02-22T01:01:20.884Z,3.67
2023-02-22T01:03:47.988Z,3.70
2023-02-22T01:06:14.627Z,5.03
2023-02-22T01:08:45.033Z,3.40
2023-02-22T01:11:11.926Z,3.70
2023-02-22T01:13:38.612Z,3.57
2023-02-22T01:16:08.316Z,3.60
2023-02-22T01:18:35.866Z,3.43
2023-02-22T01:21:03.990Z,4.50
2023-02-22T01:23:30.928Z,3.23
2023-02-22T01:25:58.044Z,2.90
2023-02-22T01:28:24.688Z,4.47
2023-02-22T01:30:51.776Z,4.33
2023-02-22T01:33:18.445Z,2.90
2023-02-22T01:35:46.253Z,3.97
2023-02-22T01:38:14.193Z,3.60
2023-02-22T01:40:42.969Z,3.23
2023-02-22T01:43:21.689Z,3.77
2023-02-22T01:45:50.010Z,3.17
2023-02-22T01:48:28.381Z,3.20
2023-02-22T01:51:13.593Z,3.30
2023-02-22T01:53:46.006Z,3.17
2023-02-22T01:56:13.190Z,3.23
2023-02-22T01:58:42.587Z,3.33
2023-02-22T02:01:09.576Z,3.40
2023-02-22T02:03:38.582Z,3.43
2023-02-22T02:06:11.841Z,3.23
2023-02-22T02:08:49.924Z,3.43
2023-02-22T02:11:19.831Z,3.60
2023-02-22T02:13:47.445Z,4.00
2023-02-22T02:16:14.705Z,3.40
2023-02-22T02:18:41.339Z,2.70
2023-02-22T02:21:29.526Z,3.40
2023-02-22T02:24:21.154Z,3.00
2023-02-22T02:27:09.169Z,3.00
2023-02-22T02:30:13.644Z,3.37
2023-02-22T02:33:06.159Z,2.70
2023-02-22T02:35:43.588Z,3.23
2023-02-22T02:38:26.727Z,3.27
2023-02-22T02:41:07.674Z,3.23
2023-02-22T02:43:47.360Z,3.57
2023-02-22T02:46:23.033Z,3.00
2023-02-22T02:48:56.851Z,4.20
2023-02-22T02:51:28.274Z,2.85
2023-02-22T02:53:56.124Z,2.80
2023-02-22T02:56:23.552Z,3.13
2023-02-22T02:58:52.893Z,3.03
2023-02-22T03:01:33.433Z,3.30
2023-02-22T03:04:10.171Z,2.90
2023-02-22T03:07:03.591Z,3.07
2023-02-22T03:09:38.376Z,3.97
2023-02-22T03:12:16.918Z,3.10
2023-02-22T03:15:06.524Z,3.43
2023-02-22T03:17:41.420Z,3.00
2023-02-22T03:20:46.269Z,3.27
2023-02-22T03:23:24.882Z,2.50
2023-02-22T03:25:56.592Z,2.60
2023-02-22T03:28:29.040Z,2.77
2023-02-22T03:31:02.032Z,4.07
2023-02-22T03:33:37.849Z,2.88
2023-02-22T03:36:16.159Z,4.03
2023-02-22T03:38:44.649Z,2.50
2023-02-22T03:41:12.009Z,2.50
2023-02-22T03:43:44.721Z,3.47
2023-02-22T03:46:12.600Z,3.30
2023-02-22T03:49:03.634Z,3.23
2023-02-22T03:51:30.656Z,3.97
2023-02-22T03:53:58.064Z,3.73
2023-02-22T03:56:35.848Z,2.90
2023-02-22T03:59:07.736Z,2.57
2023-02-22T04:01:34.811Z,4.90
2023-02-22T04:04:01.570Z,2.70
2023-02-22T04:06:28.970Z,2.70
2023-02-22T04:08:56.186Z,3.97
2023-02-22T04:11:25.478Z,3.37
2023-02-22T04:13:54.824Z,3.07
2023-02-22T04:16:22.931Z,3.33
2023-02-22T04:18:49.623Z,3.13
2023-02-22T04:21:16.487Z,3.10
2023-02-22T04:23:43.288Z,4.13
2023-02-22T04:26:10.084Z,2.67
2023-02-22T04:28:36.668Z,2.50
2023-02-22T04:31:04.714Z,3.20
2023-02-22T04:33:33.470Z,2.67
2023-02-22T04:36:00.151Z,2.00
2023-02-22T04:38:27.092Z,2.30
2023-02-22T04:40:56.898Z,2.83
2023-02-22T04:43:23.594Z,3.03
2023-02-22T04:45:50.864Z,2.20
2023-02-22T04:48:17.457Z,2.83
2023-02-22T04:50:44.118Z,2.80
2023-02-22T04:53:10.846Z,2.30
2023-02-22T04:55:37.509Z,2.83
2023-02-22T04:58:04.220Z,2.70
2023-02-22T05:00:30.903Z,3.10
2023-02-22T05:02:57.792Z,2.67
2023-02-22T05:05:25.268Z,2.90
2023-02-22T05:07:52.589Z,3.70
2023-02-22T05:10:19.691Z,2.93
2023-02-22T05:12:46.393Z,3.83
2023-02-22T05:15:18.487Z,3.20
2023-02-22T05:17:45.263Z,3.37
2023-02-22T05:20:24.123Z,2.93
2023-02-22T05:22:52.004Z,3.33
2023-02-22T05:25:20.489Z,2.77
2023-02-22T05:27:55.259Z,3.77
2023-02-22T05:30:31.238Z,3.00
2023-02-22T05:32:59.327Z,2.77
2023-02-22T05:35:27.142Z,2.33
2023-02-22T05:37:53.782Z,3.57
2023-02-22T05:40:23.105Z,2.83
2023-02-22T05:42:50.771Z,2.70
2023-02-22T05:45:19.620Z,4.50
2023-02-22T05:47:46.611Z,2.70
2023-02-22T05:50:14.546Z,2.77
2023-02-22T05:52:41.331Z,2.17
2023-02-22T05:55:09.036Z,3.60
2023-02-22T05:57:35.846Z,2.87
2023-02-22T06:00:10.067Z,3.47
2023-02-22T06:02:36.837Z,2.88
2023-02-22T06:05:03.467Z,3.23
2023-02-22T06:07:30.076Z,2.60
2023-02-22T06:09:56.705Z,2.23
2023-02-22T06:12:23.350Z,3.10
2023-02-22T06:14:50.003Z,2.60
2023-02-22T06:17:18.033Z,2.30
2023-02-22T06:19:45.528Z,2.70
2023-02-22T06:22:18.098Z,2.53
2023-02-22T06:24:44.824Z,3.00
2023-02-22T06:27:11.439Z,3.00
2023-02-22T06:29:38.349Z,2.00
2023-02-22T06:32:05.265Z,2.50
2023-02-22T06:34:32.317Z,3.20
2023-02-22T06:37:00.064Z,2.50
2023-02-22T06:39:26.737Z,3.07
2023-02-22T06:41:55.306Z,3.17
2023-02-22T06:44:21.928Z,2.47
2023-02-22T06:46:51.162Z,2.80
2023-02-22T06:49:19.719Z,3.30
2023-02-22T06:51:46.775Z,2.63
2023-02-22T06:54:13.873Z,2.97
2023-02-22T06:56:40.573Z,2.27
2023-02-22T06:59:08.470Z,3.17
2023-02-22T07:01:35.365Z,2.40
2023-02-22T07:04:01.982Z,3.43
2023-02-22T07:06:28.715Z,2.70
2023-02-22T07:08:55.328Z,2.30
2023-02-22T07:11:21.969Z,3.07
2023-02-22T07:13:48.657Z,2.57
2023-02-22T07:16:15.369Z,3.03
2023-02-22T07:18:41.998Z,2.57
2023-02-22T07:21:08.650Z,3.23
2023-02-22T07:23:35.267Z,2.20
2023-02-22T07:26:02.686Z,3.37
2023-02-22T07:28:29.449Z,2.87
2023-02-22T07:30:56.037Z,3.23
2023-02-22T07:33:22.665Z,2.73
2023-02-22T07:35:50.877Z,2.80
2023-02-22T07:38:18.915Z,2.60
2023-02-22T07:40:45.764Z,2.80
2023-02-22T07:43:25.879Z,3.63
2023-02-22T07:45:54.136Z,3.80
2023-02-22T07:48:22.696Z,2.70
2023-02-22T07:50:49.595Z,2.90
2023-02-22T07:53:30.803Z,3.60
2023-02-22T07:56:02.341Z,3.00
2023-02-22T07:58:30.660Z,2.37
2023-02-22T08:00:57.739Z,2.93
2023-02-22T08:03:26.062Z,2.57
2023-02-22T08:05:54.941Z,3.03
2023-02-22T08:08:22.093Z,2.63
2023-02-22T08:10:50.061Z,2.57
2023-02-22T08:13:17.480Z,2.77
2023-02-22T08:15:44.498Z,3.07
2023-02-22T08:18:14.082Z,2.63
2023-02-22T08:20:42.609Z,2.40
2023-02-22T08:23:10.215Z,3.77
2023-02-22T08:25:37.388Z,4.10
2023-02-22T08:28:09.559Z,3.03
2023-02-22T08:30:40.043Z,3.90
2023-02-22T08:33:07.219Z,3.83
2023-02-22T08:35:34.228Z,4.30
2023-02-22T08:38:03.615Z,4.00
2023-02-22T08:40:32.677Z,3.50
2023-02-22T08:42:59.341Z,3.67
2023-02-22T08:45:26.040Z,3.40
2023-02-22T08:47:52.653Z,3.20
2023-02-22T08:50:25.111Z,3.03
2023-02-22T08:52:53.893Z,2.43
2023-02-22T08:55:21.962Z,2.63
2023-02-22T08:57:48.577Z,2.60
2023-02-22T09:00:15.866Z,3.23
2023-02-22T09:02:42.447Z,3.03
2023-02-22T09:05:09.275Z,4.87
2023-02-22T09:07:35.903Z,5.50
2023-02-22T09:10:02.512Z,5.30
2023-02-22T09:12:29.201Z,6.90
2023-02-22T09:14:55.789Z,6.23
2023-02-22T09:17:22.393Z,5.83
2023-02-22T09:19:48.982Z,4.63
2023-02-22T09:22:15.629Z,4.33
2023-02-22T09:24:43.388Z,4.60
2023-02-22T09:27:12.176Z,4.47
2023-02-22T09:29:39.511Z,3.67
2023-02-22T09:32:06.351Z,4.40
2023-02-22T09:34:35.319Z,3.87
2023-02-22T09:37:02.014Z,4.80
2023-02-22T09:39:29.218Z,4.90
2023-02-22T09:42:24.042Z,3.37
2023-02-22T09:48:08.200Z,3.93
2023-02-22T09:53:29.455Z,3.53
2023-02-22T09:56:00.527Z,4.40
2023-02-22T09:58:42.943Z,4.53
2023-02-22T10:01:28.432Z,3.67
2023-02-22T10:04:12.372Z,3.90
2023-02-22T10:06:39.840Z,4.13
2023-02-22T10:09:07.912Z,4.40
2023-02-22T10:11:34.479Z,4.17
2023-02-22T10:14:05.949Z,3.97
2023-02-22T10:16:43.577Z,3.27
2023-02-22T10:19:17.452Z,3.10
2023-02-22T10:22:07.737Z,4.75
2023-02-22T10:24:57.138Z,3.83
2023-02-22T10:27:39.917Z,3.80
2023-02-22T10:30:27.869Z,3.30
2023-02-22T10:33:05.275Z,3.70
2023-02-22T10:35:37.128Z,4.30
2023-02-22T10:38:16.584Z,4.10
2023-02-22T10:40:54.747Z,3.70
2023-02-22T10:43:21.706Z,3.60
2023-02-22T10:45:48.399Z,3.97
2023-02-22T10:48:18.526Z,4.50
2023-02-22T10:50:46.267Z,4.00
2023-02-22T10:53:15.370Z,3.80
2023-02-22T10:56:09.942Z,3.23
2023-02-22T10:58:57.680Z,3.50
2023-02-22T11:01:33.386Z,3.20
2023-02-22T11:04:11.033Z,4.03
2023-02-22T11:06:38.038Z,4.30
2023-02-22T11:09:12.369Z,3.10
2023-02-22T11:11:44.301Z,3.20
2023-02-22T11:14:12.561Z,3.43
2023-02-22T11:16:51.500Z,6.60
2023-02-22T11:19:26.578Z,4.63
2023-02-22T11:21:56.688Z,2.60
2023-02-22T11:24:24.861Z,4.00
2023-02-22T11:26:56.811Z,3.13
2023-02-22T11:29:33.560Z,3.47
2023-02-22T11:32:13.546Z,3.13
2023-02-22T11:34:42.761Z,4.27
2023-02-22T11:37:18.348Z,4.32
2023-02-22T11:39:45.596Z,3.07
2023-02-22T11:42:27.280Z,3.40
2023-02-22T11:45:21.479Z,4.30
2023-02-22T11:47:52.634Z,5.82
2023-02-22T11:50:28.199Z,10.17
2023-02-22T11:53:05.424Z,4.03
2023-02-22T11:55:43.134Z,3.13
2023-02-22T11:58:40.944Z,3.72
2023-02-22T12:01:31.695Z,2.67
2023-02-22T12:04:23.084Z,3.47
2023-02-22T12:07:17.929Z,3.20
2023-02-22T12:09:51.792Z,3.22
2023-02-22T12:12:32.689Z,4.15
2023-02-22T12:15:13.941Z,3.08
2023-02-22T12:18:00.040Z,3.05
2023-02-22T12:20:39.589Z,3.13
2023-02-22T12:23:12.884Z,2.95
2023-02-22T12:25:42.665Z,2.87
2023-02-22T12:28:25.047Z,3.70
2023-02-22T12:31:06.204Z,2.95
2023-02-22T12:33:46.368Z,3.50
2023-02-22T12:36:16.396Z,3.45
2023-02-22T12:38:44.609Z,2.95
2023-02-22T12:41:33.344Z,4.07
2023-02-22T12:44:05.238Z,3.47
2023-02-22T12:46:44.418Z,3.77
2023-02-22T12:49:33.479Z,3.15
2023-02-22T12:52:15.920Z,3.13
2023-02-22T12:54:56.461Z,4.30
2023-02-22T12:58:01.285Z,2.92
2023-02-22T13:00:37.960Z,4.00
2023-02-22T13:03:36.628Z,2.80
2023-02-22T13:06:28.038Z,3.17
2023-02-22T13:09:35.938Z,3.92
2023-02-22T13:12:31.586Z,2.78
2023-02-22T13:15:10.924Z,3.88
2023-02-22T13:18:05.044Z,4.32
2023-02-22T13:20:46.979Z,3.45
2023-02-22T13:23:19.473Z,3.10
2023-02-22T13:25:58.109Z,4.03
2023-02-22T13:28:43.297Z,2.75
2023-02-22T13:31:22.223Z,3.53
2023-02-22T13:34:06.781Z,2.65
2023-02-22T13:36:45.429Z,3.20
2023-02-22T13:39:31.238Z,4.55
2023-02-22T13:42:19.745Z,3.63
2023-02-22T13:45:23.801Z,3.75
2023-02-22T13:47:59.267Z,3.78
2023-02-22T13:51:04.697Z,3.60
2023-02-22T13:53:44.110Z,3.05
2023-02-22T13:56:11.946Z,3.20
2023-02-22T13:58:58.731Z,4.05
2023-02-22T14:01:46.347Z,3.10
2023-02-22T14:04:32.182Z,4.07
2023-02-22T14:07:25.957Z,3.95
2023-02-22T14:09:57.081Z,4.10
2023-02-22T14:12:49.419Z,4.55
2023-02-22T14:15:29.186Z,3.42
2023-02-22T14:18:07.444Z,3.70
2023-02-22T14:20:40.203Z,3.78
2023-02-22T14:23:28.207Z,3.78
2023-02-22T14:25:55.465Z,4.28
2023-02-22T14:28:48.813Z,4.22
2023-02-22T14:31:34.454Z,19.40
2023-02-22T14:34:17.454Z,14.05
2023-02-22T14:37:01.058Z,65.22
2023-02-22T14:39:33.065Z,8.43
2023-02-22T14:42:01.504Z,6.27
2023-02-22T14:44:33.563Z,4.60
2023-02-22T14:47:05.112Z,4.30
2023-02-22T14:49:36.390Z,4.30
2023-02-22T14:52:08.305Z,3.90
2023-02-22T14:54:37.126Z,4.25
2023-02-22T14:57:14.786Z,5.10
2023-02-22T14:59:58.962Z,3.57
2023-02-22T15:02:26.154Z,4.60
2023-02-22T15:04:55.199Z,4.33
2023-02-22T15:07:31.261Z,4.40
2023-02-22T15:10:14.271Z,4.13
2023-02-22T15:12:40.942Z,2.97
2023-02-22T15:15:26.083Z,4.00
2023-02-22T15:17:55.001Z,3.40
2023-02-22T15:20:22.095Z,4.17
2023-02-22T15:22:49.914Z,3.50
2023-02-22T15:25:24.001Z,3.27
2023-02-22T15:27:50.657Z,3.60
2023-02-22T15:30:26.903Z,3.73
2023-02-22T15:33:04.967Z,3.90
2023-02-22T15:35:33.629Z,3.80
2023-02-22T15:38:08.935Z,3.03
2023-02-22T15:40:35.991Z,3.77
2023-02-22T15:43:10.650Z,3.30
2023-02-22T15:45:42.927Z,4.10
2023-02-22T15:48:14.562Z,4.30
2023-02-22T15:50:58.833Z,3.70
2023-02-22T15:53:32.024Z,3.22
2023-02-22T15:56:00.517Z,3.58
2023-02-22T15:58:31.235Z,3.17
2023-02-22T16:01:02.229Z,4.20
2023-02-22T16:03:48.459Z,5.07
2023-02-22T16:06:26.649Z,4.77
2023-02-22T16:08:55.364Z,3.80
2023-02-22T16:11:35.585Z,3.47
2023-02-22T16:14:05.260Z,2.97
2023-02-22T16:16:41.483Z,3.20
2023-02-22T16:19:36.513Z,3.00
2023-02-22T16:22:04.749Z,3.38
2023-02-22T16:24:36.228Z,3.93
2023-02-22T16:27:10.436Z,3.20
2023-02-22T16:32:04.038Z,3.60
2023-02-22T16:34:30.804Z,3.20
2023-02-22T16:36:58.027Z,3.10
2023-02-22T16:39:29.714Z,3.70
2023-02-22T16:41:58.720Z,4.93
2023-02-22T16:44:25.804Z,3.63
2023-02-22T16:46:53.454Z,4.77
2023-02-22T16:49:20.672Z,6.67
2023-02-22T16:51:56.248Z,8.97
2023-02-22T16:54:26.997Z,5.10
2023-02-22T16:56:56.121Z,3.43
2023-02-22T16:59:23.133Z,3.50
2023-02-22T17:01:51.269Z,3.80
2023-02-22T17:04:21.792Z,3.93
2023-02-22T17:06:48.483Z,3.23
2023-02-22T17:09:20.139Z,4.20
2023-02-22T17:11:49.534Z,3.20
2023-02-22T17:14:23.486Z,7.77
2023-02-22T17:16:50.808Z,3.47
2023-02-22T17:19:22.652Z,2.73
2023-02-22T17:21:50.014Z,3.03
2023-02-22T17:24:18.601Z,3.53
2023-02-22T17:26:45.635Z,2.90
2023-02-22T17:29:13.744Z,2.77
2023-02-22T17:31:40.493Z,3.53
2023-02-22T17:34:07.557Z,3.07
2023-02-22T17:36:36.363Z,2.93
2023-02-22T17:39:04.063Z,4.00
2023-02-22T17:41:31.024Z,3.40
2023-02-22T17:43:58.140Z,3.70
2023-02-22T17:46:25.538Z,2.97
2023-02-22T17:48:55.171Z,4.60
2023-02-22T17:51:23.299Z,2.70
2023-02-22T17:53:50.187Z,2.77
2023-02-22T17:56:18.843Z,2.90
2023-02-22T17:58:47.805Z,3.00
2023-02-22T18:01:27.121Z,2.80
2023-02-22T18:03:55.407Z,3.33
2023-02-22T18:06:25.211Z,3.80
2023-02-22T18:08:56.784Z,2.97
2023-02-22T18:11:26.617Z,2.93
2023-02-22T18:13:56.914Z,3.27
2023-02-22T18:16:25.957Z,3.27
2023-02-22T18:18:55.294Z,3.73
2023-02-22T18:21:22.725Z,3.50
2023-02-22T18:23:49.426Z,3.20
2023-02-22T18:26:17.886Z,3.73
2023-02-22T18:28:44.783Z,3.60
2023-02-22T18:31:15.362Z,3.67
2023-02-22T18:33:47.453Z,4.40
2023-02-22T18:36:14.740Z,3.40
2023-02-22T18:38:43.169Z,3.77
2023-02-22T18:41:17.610Z,4.00
2023-02-22T18:46:19.395Z,4.50
2023-02-22T18:48:47.892Z,5.23
2023-02-22T18:51:17.275Z,4.67
2023-02-22T18:53:47.139Z,5.33
2023-02-22T18:56:16.857Z,4.57
2023-02-22T18:58:44.097Z,4.93
2023-02-22T19:01:16.081Z,4.77
2023-02-22T19:03:42.987Z,5.57
2023-02-22T19:06:10.022Z,5.07
2023-02-22T19:08:40.684Z,5.27
2023-02-22T19:11:12.719Z,5.40
2023-02-22T19:13:39.380Z,5.60
2023-02-22T19:16:07.371Z,5.43
2023-02-22T19:18:34.280Z,5.47
2023-02-22T19:21:03.092Z,5.90
2023-02-22T19:23:34.418Z,7.13
2023-02-22T19:26:03.164Z,6.30
2023-02-22T19:28:34.140Z,5.30
2023-02-22T19:31:11.162Z,5.57
2023-02-22T19:33:37.991Z,7.10
2023-02-22T19:36:05.032Z,5.60
2023-02-22T19:38:31.711Z,5.93
2023-02-22T19:40:58.776Z,6.93
2023-02-22T19:43:25.417Z,6.90
2023-02-22T19:45:52.059Z,8.73
2023-02-22T19:48:19.117Z,7.67
2023-02-22T19:50:49.499Z,6.57
2023-02-22T19:53:16.614Z,7.60
2023-02-22T19:55:43.534Z,7.80
2023-02-22T19:58:10.237Z,7.50
2023-02-22T20:00:37.116Z,8.33
2023-02-22T20:03:06.700Z,7.13
2023-02-22T20:05:36.463Z,6.90
2023-02-22T20:08:03.214Z,7.00
2023-02-22T20:10:29.974Z,8.13
2023-02-22T20:12:56.709Z,9.33
2023-02-22T20:15:24.004Z,8.57
2023-02-22T20:17:53.541Z,7.43
2023-02-22T20:20:28.449Z,9.60
2023-02-22T20:22:56.956Z,9.63
2023-02-22T20:25:25.253Z,9.93
2023-02-22T20:27:51.906Z,8.73
2023-02-22T20:30:19.478Z,9.63
2023-02-22T20:32:46.365Z,9.20
2023-02-22T20:35:13.633Z,9.17
2023-02-22T20:37:42.547Z,8.70
2023-02-22T20:40:15.645Z,9.50
2023-02-22T20:42:47.463Z,10.23
2023-02-22T20:45:16.202Z,9.57
2023-02-22T20:47:43.128Z,10.43
2023-02-22T20:50:15.897Z,10.90
2023-02-22T20:52:42.510Z,9.83
2023-02-22T20:55:11.531Z,9.67
2023-02-22T20:57:38.620Z,9.57
2023-02-22T21:00:10.579Z,9.50
2023-02-22T21:02:38.550Z,9.63
2023-02-22T21:05:06.510Z,10.33
2023-02-22T21:07:33.449Z,12.27
2023-02-22T21:10:00.104Z,9.67
2023-02-22T21:12:27.010Z,10.10
2023-02-22T21:14:54.279Z,10.60
2023-02-22T21:17:28.718Z,11.67
2023-02-22T21:22:26.094Z,10.43
2023-02-22T21:24:53.412Z,10.77
2023-02-22T21:27:20.084Z,11.23
2023-02-22T21:29:47.345Z,11.43
2023-02-22T21:32:15.079Z,11.53
2023-02-22T21:34:42.074Z,11.43
2023-02-22T21:37:11.174Z,10.80
2023-02-22T21:39:40.675Z,11.03
2023-02-22T21:42:16.175Z,10.37
2023-02-22T21:44:59.885Z,11.63
2023-02-22T21:47:45.882Z,11.37
2023-02-22T21:50:20.953Z,11.77
2023-02-22T21:53:02.537Z,11.47
2023-02-22T21:55:39.284Z,10.63
2023-02-22T21:58:19.128Z,11.90
2023-02-22T22:01:05.592Z,11.77
2023-02-22T22:03:38.025Z,12.07
2023-02-22T22:09:35.392Z,11.90
2023-02-22T22:12:14.630Z,12.13
2023-02-22T22:14:52.901Z,11.63
2023-02-22T22:17:22.765Z,12.03
2023-02-22T22:19:51.191Z,11.87
2023-02-22T22:22:17.816Z,12.53
2023-02-22T22:24:48.604Z,11.57
2023-02-22T22:27:15.986Z,12.00
2023-02-22T22:29:43.516Z,11.90
2023-02-22T22:32:10.705Z,12.90
2023-02-22T22:34:37.887Z,10.80
2023-02-22T22:37:08.576Z,11.43
2023-02-22T22:39:38.532Z,11.57
2023-02-22T22:42:05.233Z,13.10
2023-02-22T22:44:40.913Z,13.03
2023-02-22T22:47:12.205Z,13.13
2023-02-22T22:49:42.819Z,11.70
2023-02-22T22:52:10.404Z,11.00
2023-02-22T22:54:38.320Z,11.93
2023-02-22T22:57:08.008Z,11.93
2023-02-22T22:59:35.139Z,12.20
2023-02-22T23:02:03.330Z,12.13
2023-02-22T23:04:30.109Z,12.93
2023-02-22T23:06:56.767Z,10.50
2023-02-22T23:09:25.201Z,11.73
2023-02-22T23:11:55.040Z,11.20
2023-02-22T23:14:32.079Z,10.87
2023-02-22T23:17:03.564Z,11.83
2023-02-22T23:19:36.111Z,11.47
2023-02-22T23:22:05.602Z,11.03
2023-02-22T23:24:36.109Z,10.30
2023-02-22T23:27:06.923Z,13.03
2023-02-22T23:29:37.269Z,9.83
2023-02-22T23:32:05.796Z,11.63
2023-02-22T23:34:35.127Z,11.57
2023-02-22T23:37:01.864Z,10.47
2023-02-22T23:39:30.619Z,12.70
2023-02-22T23:42:01.676Z,10.93
2023-02-22T23:44:28.879Z,11.27
2023-02-22T23:46:58.357Z,10.97
2023-02-22T23:49:36.044Z,10.43
2023-02-22T23:52:06.766Z,9.53
2023-02-22T23:54:36.555Z,10.60
2023-02-22T23:57:04.601Z,10.37
2023-02-22T23:59:32.401Z,9.40
